Time;durP1;ratioP1;P1;durP2;ratioP2;P2;SDS_P1;SDS_P2;PMS_P1;PMS_P2;Temp;Humidity;BMP_temperature;BMP_pressure;BME280_temperature;BME280_humidity;BME280_pressure;Samples;Min_cycle;Max_cycle;Signal;HPM_P1;HPM_P2
2022/03/03 10:11:40;;;;;;;36.57;33.57;;;15.30;57.10;;;;;;5107889;27;20634;-74
2022/03/03 10:14:07;;;;;;;34.63;31.67;;;18.60;51.80;;;;;;5107641;28;20453;-75
2022/03/03 10:16:34;;;;;;;37.10;33.87;;;18.60;51.20;;;;;;5107642;28;20475;-74
2022/03/03 10:19:03;;;;;;;38.17;34.57;;;18.30;50.90;;;;;;5107651;28;20441;-73
2022/03/03 10:21:30;;;;;;;35.33;32.50;;;19.20;50.20;;;;;;5107393;28;20485;-74
2022/03/03 10:23:58;;;;;;;37.17;33.70;;;19.40;49.00;;;;;;5107612;28;20530;-75
2022/03/03 10:26:38;;;;;;;38.47;34.93;;;19.30;49.40;;;;;;5107384;28;20442;-75
2022/03/03 10:29:16;;;;;;;37.00;34.07;;;19.40;48.70;;;;;;5107470;28;20577;-76
2022/03/03 10:31:49;;;;;;;36.87;33.87;;;20.10;48.10;;;;;;5107297;28;20799;-75
2022/03/03 10:34:18;;;;;;;36.40;33.50;;;20.20;46.90;;;;;;5107454;28;20495;-76
2022/03/03 10:36:45;;;;;;;35.77;32.67;;;20.90;45.90;;;;;;5107112;28;20855;-75
2022/03/03 10:39:11;;;;;;;35.67;32.70;;;20.00;45.10;;;;;;5107234;28;20797;-76
2022/03/03 10:41:41;;;;;;;35.07;31.97;;;19.50;45.30;;;;;;5108201;28;20505;-74
2022/03/03 10:44:10;;;;;;;35.57;32.67;;;19.50;46.60;;;;;;5113675;28;20454;-76
2022/03/03 10:46:39;;;;;;;35.97;32.97;;;19.70;46.20;;;;;;5115726;28;20446;-77
2022/03/03 10:49:19;;;;;;;36.17;33.33;;;20.30;45.60;;;;;;5109454;28;20989;-76
2022/03/03 10:51:46;;;;;;;32.80;30.20;;;20.70;44.00;;;;;;5110397;28;20453;-76
2022/03/03 10:54:13;;;;;;;33.53;30.93;;;20.20;42.50;;;;;;5107611;28;20449;-76
2022/03/03 10:56:48;;;;;;;33.10;30.43;;;20.20;42.80;;;;;;5107221;28;20455;-76
2022/03/03 10:59:23;;;;;;;34.43;31.27;;;20.20;42.30;;;;;;5106946;28;20450;-76
2022/03/03 11:01:51;;;;;;;34.80;32.17;;;20.70;41.50;;;;;;5107111;28;20521;-76
2022/03/03 11:04:19;;;;;;;32.17;29.70;;;20.90;41.90;;;;;;5107092;28;20497;-76
2022/03/03 11:06:49;;;;;;;34.33;31.60;;;20.40;41.80;;;;;;5106786;28;20444;-75
2022/03/03 11:09:16;;;;;;;31.83;29.37;;;20.90;42.20;;;;;;5106356;28;20456;-75
2022/03/03 11:11:43;;;;;;;31.60;29.27;;;20.40;40.80;;;;;;5097229;28;20543;-76
2022/03/03 11:14:12;;;;;;;32.73;30.40;;;20.20;40.30;;;;;;5092777;28;20455;-75
2022/03/03 11:16:41;;;;;;;32.43;29.97;;;20.80;40.30;;;;;;5092901;28;20488;-75
2022/03/03 11:19:09;;;;;;;33.10;30.57;;;20.80;40.20;;;;;;5092990;28;20521;-75
2022/03/03 11:21:35;;;;;;;31.30;28.90;;;21.70;39.70;;;;;;5093251;28;20515;-75
2022/03/03 11:24:03;;;;;;;32.50;30.10;;;21.30;38.80;;;;;;5093070;28;20506;-77
2022/03/03 11:26:34;;;;;;;32.57;29.97;;;20.90;38.80;;;;;;5092953;28;20455;-75
2022/03/03 11:29:09;;;;;;;32.70;30.07;;;20.80;39.10;;;;;;5092889;28;20453;-75
2022/03/03 11:31:38;;;;;;;32.37;29.30;;;21.80;38.40;;;;;;5092822;28;20445;-75
2022/03/03 11:34:29;;;;;;;31.30;28.90;;;22.40;37.60;;;;;;5093045;28;20461;-76
2022/03/03 11:37:01;;;;;;;37.13;34.23;;;22.10;37.80;;;;;;5092549;28;20879;-75
2022/03/03 11:39:45;;;;;;;32.90;30.33;;;21.90;38.30;;;;;;5092461;28;20537;-74
2022/03/03 11:42:32;;;;;;;32.53;29.90;;;22.60;37.20;;;;;;5092510;28;20454;-75
2022/03/03 11:45:03;;;;;;;34.20;31.60;;;22.60;36.60;;;;;;5092421;28;20461;-75
2022/03/03 11:47:34;;;;;;;33.67;31.20;;;22.80;37.00;;;;;;5092344;28;20934;-75
2022/03/03 11:50:07;;;;;;;32.10;29.70;;;22.90;36.10;;;;;;5092154;28;21042;-75
2022/03/03 11:52:34;;;;;;;33.80;31.13;;;21.40;36.80;;;;;;5092708;28;20866;-74
2022/03/03 11:55:27;;;;;;;32.27;29.77;;;21.60;37.20;;;;;;5092544;28;20450;-75
2022/03/03 11:57:54;;;;;;;33.03;30.53;;;21.60;36.80;;;;;;5092291;28;20502;-76
2022/03/03 12:00:21;;;;;;;31.87;29.37;;;21.70;36.20;;;;;;5092235;28;20541;-75
2022/03/03 12:03:00;;;;;;;32.80;30.07;;;21.90;36.40;;;;;;5092230;28;20479;-74
2022/03/03 12:05:44;;;;;;;32.07;29.77;;;21.90;36.80;;;;;;5091869;28;20505;-75
2022/03/03 12:08:35;;;;;;;34.70;31.97;;;22.60;35.90;;;;;;5091965;28;20452;-75
2022/03/03 12:11:05;;;;;;;33.73;30.93;;;23.00;35.10;;;;;;5091723;28;20491;-75
2022/03/03 12:13:33;;;;;;;33.37;30.47;;;22.60;35.10;;;;;;5091858;28;20454;-75
2022/03/03 12:16:21;;;;;;;31.70;29.30;;;23.20;34.70;;;;;;5091711;28;20454;-76
2022/03/03 12:18:50;;;;;;;32.70;30.13;;;24.60;33.20;;;;;;5091962;28;20847;-76
2022/03/03 12:21:29;;;;;;;30.53;28.43;;;23.60;34.50;;;;;;5091824;28;20500;-75
2022/03/03 12:24:28;;;;;;;35.40;32.80;;;23.10;34.50;;;;;;5090587;28;20449;-75
2022/03/03 12:27:15;;;;;;;34.30;31.83;;;22.10;36.30;;;;;;5091612;28;20454;-76
2022/03/03 12:29:57;;;;;;;34.60;31.73;;;23.00;35.70;;;;;;5091542;28;20522;-76
2022/03/03 12:32:30;;;;;;;35.03;32.43;;;23.20;34.90;;;;;;5091557;28;20534;-76
2022/03/03 12:35:01;;;;;;;34.60;32.10;;;22.50;34.40;;;;;;5091157;28;20454;-76
2022/03/03 12:37:29;;;;;;;34.33;31.30;;;22.40;35.40;;;;;;5091316;28;20494;-77
2022/03/03 12:40:00;;;;;;;33.50;30.90;;;23.20;34.70;;;;;;5091295;28;21191;-76
2022/03/03 12:42:28;;;;;;;33.93;31.53;;;23.10;34.00;;;;;;5091261;28;20845;-74
2022/03/03 12:44:58;;;;;;;35.00;32.10;;;22.80;35.10;;;;;;5090990;28;20446;-75
2022/03/03 12:47:34;;;;;;;34.50;31.90;;;23.80;34.50;;;;;;5091132;28;20504;-75
2022/03/03 12:50:08;;;;;;;35.30;32.13;;;22.90;33.40;;;;;;5091196;28;21002;-75
2022/03/03 12:52:36;;;;;;;35.13;32.23;;;21.70;34.70;;;;;;5091440;28;20450;-74
2022/03/03 12:55:04;;;;;;;34.63;32.03;;;20.50;36.30;;;;;;5091417;28;20450;-76
2022/03/03 12:57:33;;;;;;;35.53;32.57;;;20.40;36.80;;;;;;5091309;28;20450;-76
2022/03/03 13:00:02;;;;;;;33.20;30.67;;;19.90;37.60;;;;;;5091113;28;20491;-74
2022/03/03 13:02:29;;;;;;;30.67;28.37;;;20.70;38.10;;;;;;5090912;28;20471;-74
2022/03/03 13:04:56;;;;;;;33.83;31.27;;;21.20;37.00;;;;;;5090800;28;20457;-75
2022/03/03 13:07:39;;;;;;;33.83;30.83;;;21.30;35.70;;;;;;5091202;28;20452;-74
2022/03/03 13:10:07;;;;;;;37.00;34.10;;;21.20;36.20;;;;;;5090808;28;20576;-75
2022/03/03 13:12:44;;;;;;;34.80;31.90;;;21.50;35.60;;;;;;5091031;28;21166;-74
2022/03/03 13:15:11;;;;;;;36.20;33.20;;;21.40;35.50;;;;;;5090677;28;20537;-74
2022/03/03 13:17:56;;;;;;;36.57;33.43;;;21.00;36.00;;;;;;5090574;28;20447;-74
2022/03/03 13:20:23;;;;;;;36.03;32.97;;;19.80;37.30;;;;;;5090745;28;20450;-74
2022/03/03 13:22:51;;;;;;;36.37;33.07;;;19.40;37.60;;;;;;5090880;28;20451;-75
2022/03/03 13:25:20;;;;;;;37.33;34.03;;;18.50;38.10;;;;;;5090925;28;20458;-73
2022/03/03 13:27:47;;;;;;;34.23;31.33;;;17.80;39.70;;;;;;5090472;28;20461;-74
2022/03/03 13:30:15;;;;;;;36.50;33.20;;;17.70;40.10;;;;;;5090309;28;20497;-74
2022/03/03 13:32:46;;;;;;;34.03;31.03;;;17.90;39.50;;;;;;5090522;28;20837;-73
2022/03/03 13:35:13;;;;;;;35.77;32.43;;;18.00;40.90;;;;;;5090127;28;20545;-74
2022/03/03 13:37:40;;;;;;;34.83;31.83;;;17.80;39.50;;;;;;5090382;28;20798;-74
2022/03/03 13:40:17;;;;;;;36.23;32.70;;;18.10;39.50;;;;;;5090524;28;20517;-74
2022/03/03 13:42:44;;;;;;;33.30;30.50;;;17.90;39.60;;;;;;5090216;28;20461;-75
2022/03/03 13:45:11;;;;;;;34.67;31.57;;;17.40;39.80;;;;;;5090450;28;20454;-75
2022/03/03 13:47:41;;;;;;;35.37;32.07;;;17.40;40.50;;;;;;5090436;28;20453;-75
2022/03/03 13:50:09;;;;;;;33.27;30.27;;;17.10;40.10;;;;;;5090156;28;20479;-74
2022/03/03 13:52:37;;;;;;;35.87;32.53;;;15.90;41.70;;;;;;5090282;28;20450;-75
2022/03/03 13:55:13;;;;;;;32.27;29.47;;;15.10;43.60;;;;;;5090462;28;20454;-75
2022/03/03 13:57:43;;;;;;;32.97;29.93;;;14.20;45.60;;;;;;5090277;28;20450;-74
2022/03/03 14:00:21;;;;;;;33.33;30.40;;;13.50;47.70;;;;;;5090083;28;20817;-73
2022/03/03 14:02:53;;;;;;;31.97;29.17;;;13.10;49.10;;;;;;5090370;28;20470;-76
2022/03/03 14:05:40;;;;;;;31.10;28.20;;;12.50;50.20;;;;;;5090395;28;20454;-75
2022/03/03 14:08:18;;;;;;;32.90;29.60;;;12.30;51.90;;;;;;5090245;28;20457;-74
2022/03/03 14:10:54;;;;;;;32.00;29.20;;;12.00;52.90;;;;;;5089843;28;20490;-75
2022/03/03 14:13:23;;;;;;;32.40;29.40;;;12.00;53.70;;;;;;5090395;28;20458;-75
2022/03/03 14:15:51;;;;;;;31.67;28.43;;;11.90;54.20;;;;;;5090268;28;20447;-75
2022/03/03 14:18:21;;;;;;;32.73;29.30;;;11.80;55.10;;;;;;5090364;28;20458;-74
2022/03/03 14:20:49;;;;;;;31.57;28.77;;;11.80;55.40;;;;;;5089892;28;20451;-75
2022/03/03 14:23:16;;;;;;;31.07;28.00;;;11.70;55.70;;;;;;5089987;28;20439;-75
2022/03/03 14:25:42;;;;;;;31.30;28.47;;;11.80;55.70;;;;;;5089957;28;20505;-75
2022/03/03 14:28:09;;;;;;;30.23;27.20;;;11.80;55.20;;;;;;5089941;28;20453;-75
2022/03/03 14:30:37;;;;;;;30.00;27.30;;;11.70;56.00;;;;;;5090088;28;20479;-75
2022/03/03 14:33:04;;;;;;;32.40;29.57;;;11.70;55.90;;;;;;5090175;28;20446;-75
2022/03/03 14:35:31;;;;;;;30.97;28.10;;;11.70;55.70;;;;;;5089822;28;20446;-75
2022/03/03 14:37:57;;;;;;;33.03;29.93;;;11.80;55.50;;;;;;5090001;28;20454;-75
2022/03/03 14:40:24;;;;;;;31.50;28.73;;;11.70;55.40;;;;;;5089794;28;20451;-75
2022/03/03 14:42:51;;;;;;;30.43;27.50;;;11.70;55.70;;;;;;5089925;28;20447;-75
2022/03/03 14:45:18;;;;;;;29.83;26.90;;;11.70;55.50;;;;;;5089943;28;20805;-74
2022/03/03 14:47:46;;;;;;;31.43;28.43;;;11.70;55.40;;;;;;5093350;28;20503;-75
2022/03/03 14:50:14;;;;;;;28.83;26.10;;;11.70;55.20;;;;;;5093395;28;20453;-75
2022/03/03 14:52:42;;;;;;;29.13;26.23;;;11.60;55.50;;;;;;5093421;28;20654;-75
2022/03/03 14:55:10;;;;;;;27.83;25.47;;;11.60;55.10;;;;;;5093402;28;20568;-75
2022/03/03 14:57:37;;;;;;;29.60;26.60;;;11.50;55.20;;;;;;5093617;28;20447;-75
2022/03/03 15:00:05;;;;;;;29.23;26.37;;;11.50;54.80;;;;;;5093653;28;20450;-75
2022/03/03 15:02:33;;;;;;;29.53;26.63;;;11.40;54.90;;;;;;5093378;28;20467;-75
2022/03/03 15:05:01;;;;;;;32.67;27.70;;;11.50;54.80;;;;;;5093120;28;20447;-75
2022/03/03 15:07:27;;;;;;;28.43;25.73;;;11.40;54.00;;;;;;5093275;28;20470;-74
2022/03/03 15:09:55;;;;;;;27.33;24.80;;;11.40;54.40;;;;;;5092974;28;20484;-75
2022/03/03 15:12:21;;;;;;;29.77;27.27;;;11.40;54.80;;;;;;5093277;28;20890;-75
2022/03/03 15:14:48;;;;;;;29.90;27.10;;;11.40;54.40;;;;;;5093216;28;20541;-74
2022/03/03 15:17:16;;;;;;;29.57;26.90;;;11.40;54.10;;;;;;5093064;28;20471;-74
2022/03/03 15:19:43;;;;;;;28.63;26.20;;;11.40;53.30;;;;;;5092983;28;20905;-75
2022/03/03 15:22:11;;;;;;;26.40;23.90;;;11.40;53.20;;;;;;5093118;28;20515;-74
2022/03/03 15:24:38;;;;;;;26.37;24.00;;;11.40;52.50;;;;;;5092881;28;20451;-75
2022/03/03 15:27:04;;;;;;;26.27;23.87;;;11.40;52.50;;;;;;5093072;28;20512;-75
2022/03/03 15:29:31;;;;;;;26.40;23.90;;;11.40;52.10;;;;;;5092861;28;20447;-75
2022/03/03 15:31:59;;;;;;;25.63;23.43;;;11.40;51.60;;;;;;5092616;28;20791;-75
2022/03/03 15:37:12;;;;;;;26.27;24.10;;;11.30;52.20;;;;;;5092881;28;20426;-73
2022/03/03 15:39:39;;;;;;;26.30;23.90;;;11.30;52.40;;;;;;5092441;28;20496;-74
2022/03/03 15:42:08;;;;;;;25.90;23.47;;;11.40;52.50;;;;;;5092735;28;20966;-75
2022/03/03 15:44:36;;;;;;;26.70;24.23;;;11.30;52.00;;;;;;5092537;28;20576;-75
2022/03/03 15:47:04;;;;;;;25.80;23.40;;;11.30;51.50;;;;;;5092511;28;20814;-74
2022/03/03 15:49:31;;;;;;;25.77;23.70;;;11.30;51.20;;;;;;5092189;28;20566;-75
2022/03/03 15:51:58;;;;;;;27.90;25.60;;;11.20;51.80;;;;;;5092030;28;21000;-74
2022/03/03 15:54:26;;;;;;;25.07;22.87;;;11.20;52.00;;;;;;5092456;28;20451;-75
2022/03/03 15:56:54;;;;;;;25.77;23.33;;;11.20;52.00;;;;;;5092106;28;20453;-74
2022/03/03 15:59:22;;;;;;;24.33;22.20;;;11.20;51.70;;;;;;5092290;28;20455;-76
2022/03/03 16:01:49;;;;;;;24.87;22.40;;;11.20;52.00;;;;;;5092248;28;20475;-76
2022/03/03 16:04:16;;;;;;;23.10;21.00;;;11.10;51.30;;;;;;5091984;28;20954;-74
2022/03/03 16:06:43;;;;;;;23.23;21.30;;;11.10;50.60;;;;;;5092193;28;20461;-76
2022/03/03 16:09:10;;;;;;;22.73;20.90;;;11.00;50.50;;;;;;5091897;28;20838;-75
2022/03/03 16:11:38;;;;;;;24.80;22.80;;;10.90;50.40;;;;;;5091926;28;20893;-75
2022/03/03 16:14:05;;;;;;;24.93;22.70;;;10.90;50.60;;;;;;5092049;28;20454;-75
2022/03/03 16:16:32;;;;;;;25.60;23.20;;;10.90;51.30;;;;;;5091944;28;20504;-75
2022/03/03 16:18:59;;;;;;;24.23;22.13;;;10.90;50.70;;;;;;5091602;28;20466;-76
2022/03/03 16:21:26;;;;;;;26.23;24.00;;;10.80;51.00;;;;;;5091764;28;20949;-75
2022/03/03 16:23:53;;;;;;;30.83;24.00;;;10.70;51.00;;;;;;5091556;28;20499;-75
2022/03/03 16:26:20;;;;;;;24.17;21.30;;;10.60;51.50;;;;;;5091785;28;20495;-75
2022/03/03 16:28:49;;;;;;;26.47;21.07;;;10.60;51.80;;;;;;5091862;28;20696;-75
2022/03/03 16:31:55;;;;;;;22.83;20.07;;;10.50;51.30;;;;;;5091250;28;20485;-75
2022/03/03 16:34:22;;;;;;;25.70;23.10;;;10.40;51.40;;;;;;5091055;28;20453;-74
2022/03/03 16:36:49;;;;;;;25.93;23.00;;;10.40;51.70;;;;;;5091848;28;20451;-75
2022/03/03 16:39:16;;;;;;;22.90;20.93;;;10.30;52.40;;;;;;5091427;28;20564;-75
2022/03/03 16:41:43;;;;;;;24.73;22.60;;;10.20;52.20;;;;;;5091519;28;20450;-75
2022/03/03 16:44:11;;;;;;;23.13;21.10;;;10.10;52.70;;;;;;5091538;28;20442;-75
2022/03/03 16:46:38;;;;;;;23.70;21.70;;;10.00;52.90;;;;;;5091500;28;20447;-74
2022/03/03 16:49:05;;;;;;;21.87;19.90;;;9.90;54.00;;;;;;5091752;28;20856;-74
2022/03/03 16:51:32;;;;;;;23.67;21.67;;;9.90;54.20;;;;;;5091231;28;20570;-75
2022/03/03 16:54:00;;;;;;;24.87;22.60;;;9.80;54.80;;;;;;5091042;28;20453;-75
2022/03/03 16:56:27;;;;;;;26.77;21.57;;;9.70;55.20;;;;;;5091149;28;20849;-76
2022/03/03 16:58:54;;;;;;;24.77;22.47;;;9.60;55.60;;;;;;5090990;28;20458;-75
2022/03/03 17:01:22;;;;;;;24.47;21.97;;;9.50;56.10;;;;;;5091178;28;20474;-75
2022/03/03 17:03:49;;;;;;;23.97;21.87;;;9.50;56.90;;;;;;5091162;28;20459;-75
2022/03/03 17:06:16;;;;;;;23.63;21.73;;;9.40;57.00;;;;;;5091137;28;20450;-76
2022/03/03 17:08:42;;;;;;;26.27;23.87;;;9.40;57.70;;;;;;5090387;28;20823;-75
2022/03/03 17:11:09;;;;;;;21.90;20.10;;;9.30;58.30;;;;;;5090558;28;21087;-75
2022/03/03 17:13:36;;;;;;;23.70;21.50;;;9.30;59.10;;;;;;5091038;28;20449;-76
2022/03/03 17:16:08;;;;;;;25.50;23.03;;;9.30;59.90;;;;;;5090799;28;20446;-76
2022/03/03 17:18:37;;;;;;;23.93;21.90;;;9.20;61.40;;;;;;5090622;28;20480;-75
2022/03/03 17:21:04;;;;;;;23.80;21.30;;;9.10;61.70;;;;;;5090890;28;21059;-75
2022/03/03 17:23:30;;;;;;;23.63;21.40;;;8.90;62.30;;;;;;5090782;28;20443;-75
2022/03/03 17:25:57;;;;;;;23.50;21.50;;;8.80;63.00;;;;;;5090767;28;20447;-75
2022/03/03 17:28:24;;;;;;;23.40;21.10;;;8.70;63.90;;;;;;5090617;28;20451;-77
2022/03/03 17:30:51;;;;;;;22.10;19.80;;;8.50;64.60;;;;;;5090848;28;20784;-77
2022/03/03 17:33:18;;;;;;;25.50;22.87;;;8.50;64.90;;;;;;5090546;28;20516;-74
2022/03/03 17:35:46;;;;;;;22.60;20.70;;;8.30;65.00;;;;;;5090614;28;20446;-76
2022/03/03 17:38:12;;;;;;;23.00;20.70;;;8.20;65.40;;;;;;5093271;28;20454;-75
2022/03/03 17:40:39;;;;;;;26.10;23.33;;;7.90;66.70;;;;;;5090617;28;20450;-75
2022/03/03 17:43:06;;;;;;;25.40;21.80;;;7.70;68.90;;;;;;5090565;28;20443;-74
2022/03/03 17:45:33;;;;;;;23.63;21.43;;;7.60;69.20;;;;;;5090778;28;20841;-75
2022/03/03 17:47:59;;;;;;;24.07;21.90;;;7.40;69.60;;;;;;5090272;28;20952;-76
2022/03/03 17:50:26;;;;;;;22.77;20.73;;;7.30;70.60;;;;;;5090391;28;21229;-75
2022/03/03 17:52:54;;;;;;;23.20;21.10;;;7.20;71.10;;;;;;5090167;28;21140;-75
2022/03/03 17:55:21;;;;;;;24.63;22.03;;;7.10;71.90;;;;;;5091062;28;20443;-75
2022/03/03 17:57:48;;;;;;;24.00;21.80;;;6.90;72.20;;;;;;5091159;28;20439;-74
